Terminal Aerodrome Forecast
Issued by NWS Paducah, KY

Home | Current Version | Previous Version | Text Only | Print | Product List | Glossary On
Versions: 1 2 3 4 5 6 7 8 9 10 11 12 13 14 15 16 17
000
FTUS43 KPAH 241500 AAA
TAFEVV
TAF AMD
KEVV 241548Z 2416/2512 31011KT 3SM -RA BR BKN007
      TEMPO 2416/2418 1SM RA BR SCT007 OVC012
     FM242000 27011KT P6SM OVC012
     FM250900 25007KT P6SM SCT015=

USA.gov is the U.S. government's official web portal to all federal, state and local government web resources and services.